Terminal Aerodrome Forecast
Issued by NWS Grand Rapids, MI

Current Version | Previous Version | Text Only | Print | Product List | Glossary On
Versions: 1 2 3 4 5 6 7 8 9 10 11 12 13 14 15 16 17 18 19 20 21
000
FTUS43 KGRR 172300
TAFGRR
TAF
KGRR 172324Z 1800/1824 26007KT P6SM FEW045
     FM180300 VRB03KT P6SM SKC
     FM181200 06004KT P6SM BKN050
     FM181500 08008KT P6SM OVC015
     FM181800 06009KT P6SM BKN050
     FM182100 07006KT P6SM FEW250=

USA.gov is the U.S. government's official web portal to all federal, state and local government web resources and services.